Wishon, California
Current Conditions -  °F | °C
As of 5:53 PM on Saturday 22 Nov 2014 (Local Time) from KFAT Reporting Station
Scattered Clouds Scattered Clouds  
Wind Chill: 57°   Ceiling: Unl
Heat Index: 57°   Visibility: 9mi
Dew Point: 50°   Wind: 6mph
Humidity: 77%   Direction: 310°NW
Pressure: 30.13"   Gusts: NA
Location:  37.27°N, 119.54°W
Report Text: KFAT 230153Z 31005KT 9SM SCT070 14/10 A3013 RMK AO2 SLP201 T01390100
Loading
Personal Weather Stations






























Interactive Weather Map New forecast layout! Learn more

10-Day Weather Forecast

Advertisements
Track Severe Weather on mobile